Time;durP1;ratioP1;P1;durP2;ratioP2;P2;SDS_P1;SDS_P2;PMS_P1;PMS_P2;Temp;Humidity;BMP_temperature;BMP_pressure;BME280_temperature;BME280_humidity;BME280_pressure;Samples;Min_cycle;Max_cycle;Signal;HPM_P1;HPM_P2
2021/01/16 00:01:48;;;;;;;12.97;11.60;;;4.60;38.10;;;;;;5010895;28;20574;-67
2021/01/16 00:04:14;;;;;;;12.53;11.23;;;4.60;38.10;;;;;;5010942;28;20181;-67
2021/01/16 00:06:39;;;;;;;13.70;12.27;;;4.50;38.10;;;;;;5010969;28;20209;-68
2021/01/16 00:09:05;;;;;;;14.67;12.90;;;4.30;38.20;;;;;;5010804;28;20173;-67
2021/01/16 00:11:30;;;;;;;13.50;12.10;;;4.40;38.30;;;;;;5010950;28;20185;-67
2021/01/16 00:13:56;;;;;;;12.57;11.00;;;4.50;38.00;;;;;;5010884;28;20178;-67
2021/01/16 00:16:21;;;;;;;13.90;11.53;;;4.50;38.30;;;;;;5010846;28;20279;-67
2021/01/16 00:18:47;;;;;;;14.40;12.30;;;4.60;37.90;;;;;;5010800;28;20641;-68
2021/01/16 00:21:12;;;;;;;16.87;12.03;;;4.70;37.50;;;;;;5010886;28;20208;-66
2021/01/16 00:23:38;;;;;;;14.73;13.03;;;4.60;37.70;;;;;;5010841;28;20538;-67
2021/01/16 00:26:03;;;;;;;12.47;10.67;;;4.50;38.00;;;;;;5010876;28;20256;-69
2021/01/16 00:28:31;;;;;;;13.80;12.00;;;4.30;38.40;;;;;;5010894;28;20178;-67
2021/01/16 00:30:58;;;;;;;14.10;12.70;;;4.30;37.90;;;;;;5011096;28;20177;-67
2021/01/16 00:33:26;;;;;;;13.70;12.30;;;4.40;38.00;;;;;;5012105;28;20802;-68
2021/01/16 00:35:53;;;;;;;14.30;12.90;;;4.40;38.00;;;;;;5014434;28;20439;-67
2021/01/16 00:38:20;;;;;;;12.80;11.50;;;4.60;37.70;;;;;;5014191;28;20841;-68
2021/01/16 00:40:46;;;;;;;15.87;13.00;;;4.60;37.30;;;;;;5014191;28;20442;-67
2021/01/16 00:43:13;;;;;;;14.63;12.13;;;4.50;38.00;;;;;;5014216;28;20978;-67
2021/01/16 00:45:43;;;;;;;13.43;12.00;;;4.10;38.60;;;;;;5014161;28;20919;-67
2021/01/16 00:48:13;;;;;;;15.90;12.47;;;4.40;38.00;;;;;;5014059;28;20408;-67
2021/01/16 00:50:39;;;;;;;14.60;12.77;;;4.50;38.00;;;;;;5014137;28;20498;-67
2021/01/16 00:53:06;;;;;;;14.60;12.20;;;4.50;38.10;;;;;;5014059;28;20412;-67
2021/01/16 00:55:31;;;;;;;13.40;11.87;;;4.40;38.00;;;;;;5014157;28;20431;-68
2021/01/16 00:57:57;;;;;;;13.90;11.47;;;4.40;38.00;;;;;;5013836;28;20412;-67
2021/01/16 01:00:26;;;;;;;12.93;11.57;;;4.30;37.90;;;;;;5014056;28;20197;-67
2021/01/16 01:02:52;;;;;;;15.20;13.50;;;4.50;38.00;;;;;;5014019;28;20242;-67
2021/01/16 01:05:20;;;;;;;14.93;13.33;;;4.20;37.80;;;;;;5013867;28;20834;-67
2021/01/16 01:07:50;;;;;;;14.10;12.53;;;4.30;37.90;;;;;;5013747;28;20264;-67
2021/01/16 01:10:25;;;;;;;16.33;13.30;;;4.50;38.00;;;;;;5013968;28;20412;-67
2021/01/16 01:12:52;;;;;;;15.03;13.40;;;4.50;37.70;;;;;;5013852;28;20404;-67
2021/01/16 01:15:17;;;;;;;17.63;13.33;;;4.60;37.70;;;;;;5013771;28;20478;-67
2021/01/16 01:17:43;;;;;;;17.90;14.50;;;4.60;37.60;;;;;;5013613;28;20451;-68
2021/01/16 01:20:09;;;;;;;16.77;13.93;;;4.60;37.60;;;;;;5013654;28;20178;-67
2021/01/16 01:22:36;;;;;;;14.73;12.60;;;4.60;37.90;;;;;;5013733;28;20259;-67
2021/01/16 01:25:02;;;;;;;16.60;13.60;;;4.40;38.00;;;;;;5013506;28;20456;-67
2021/01/16 01:27:28;;;;;;;15.67;12.67;;;4.40;38.00;;;;;;5013407;28;20405;-67
2021/01/16 01:29:53;;;;;;;14.93;12.70;;;4.60;37.80;;;;;;5013488;28;20435;-68
2021/01/16 01:32:19;;;;;;;15.53;13.00;;;4.50;37.80;;;;;;5013480;28;20184;-67
2021/01/16 01:34:44;;;;;;;13.23;11.80;;;4.30;37.90;;;;;;5013339;28;20181;-67
2021/01/16 01:37:10;;;;;;;15.53;13.23;;;4.40;38.00;;;;;;5013113;28;20213;-67
2021/01/16 01:39:35;;;;;;;16.27;13.40;;;4.50;37.70;;;;;;5013309;28;20185;-68
2021/01/16 01:42:01;;;;;;;13.63;12.13;;;4.50;37.60;;;;;;5013212;28;20201;-67
2021/01/16 01:44:27;;;;;;;17.13;13.90;;;4.50;38.20;;;;;;5012835;28;20173;-68
2021/01/16 01:46:52;;;;;;;16.30;14.00;;;4.50;37.20;;;;;;5012791;28;20203;-67
2021/01/16 01:49:18;;;;;;;15.53;13.03;;;4.50;37.70;;;;;;5012764;28;20189;-68
2021/01/16 01:51:44;;;;;;;14.83;13.20;;;4.40;38.00;;;;;;5013053;28;20177;-67
2021/01/16 01:54:10;;;;;;;16.13;13.50;;;4.50;37.60;;;;;;5012977;28;20197;-68
2021/01/16 01:56:38;;;;;;;15.97;12.70;;;4.40;37.40;;;;;;5012874;28;20936;-68
2021/01/16 01:59:06;;;;;;;16.70;14.00;;;4.10;37.80;;;;;;5012713;28;20562;-68
2021/01/16 02:01:38;;;;;;;16.30;12.90;;;4.30;37.90;;;;;;5012748;28;20467;-68
2021/01/16 02:04:05;;;;;;;14.20;12.70;;;4.00;38.50;;;;;;5012901;28;20911;-67
2021/01/16 02:06:30;;;;;;;14.27;12.70;;;3.80;39.00;;;;;;5012961;28;20950;-68
2021/01/16 02:08:56;;;;;;;16.97;13.77;;;4.20;38.00;;;;;;5012527;28;20426;-67
2021/01/16 02:11:23;;;;;;;15.70;13.60;;;4.30;37.90;;;;;;5012683;28;20180;-67
2021/01/16 02:13:48;;;;;;;18.33;14.00;;;4.20;37.80;;;;;;5012580;28;20822;-68
2021/01/16 02:16:36;;;;;;;19.00;13.40;;;4.30;37.90;;;;;;5012493;28;20432;-68
2021/01/16 02:19:06;;;;;;;16.13;12.80;;;4.30;38.00;;;;;;5012445;28;20181;-67
2021/01/16 02:21:35;;;;;;;16.67;13.10;;;4.40;38.00;;;;;;5012414;28;20815;-68
2021/01/16 02:24:20;;;;;;;16.23;13.67;;;4.20;37.80;;;;;;5012300;28;20447;-67
2021/01/16 02:27:02;;;;;;;15.50;12.57;;;3.90;38.60;;;;;;5012318;28;20428;-68
2021/01/16 02:29:28;;;;;;;18.60;13.33;;;4.20;39.40;;;;;;5012316;28;20519;-68
2021/01/16 02:32:03;;;;;;;16.30;12.93;;;4.00;38.20;;;;;;5012287;28;20495;-68
2021/01/16 02:34:34;;;;;;;17.47;13.90;;;4.20;37.80;;;;;;5012201;28;20671;-68
2021/01/16 02:37:21;;;;;;;16.53;12.90;;;4.00;39.30;;;;;;5012068;28;20494;-68
2021/01/16 02:40:19;;;;;;;16.67;14.10;;;3.80;38.80;;;;;;5012023;28;20955;-69
2021/01/16 02:42:51;;;;;;;16.60;13.77;;;4.10;39.70;;;;;;5000560;28;21006;-68
2021/01/16 02:45:22;;;;;;;15.87;12.57;;;4.30;38.80;;;;;;5011998;28;20969;-68
2021/01/16 02:47:54;;;;;;;16.53;12.83;;;4.50;38.50;;;;;;5011826;28;20420;-67
2021/01/16 02:50:21;;;;;;;16.80;12.60;;;4.70;37.30;;;;;;5011919;28;20911;-67
2021/01/16 02:52:48;;;;;;;17.33;13.63;;;4.50;37.30;;;;;;5011942;28;20427;-68
2021/01/16 02:55:18;;;;;;;16.27;12.77;;;4.30;37.90;;;;;;5011928;28;20436;-67
2021/01/16 02:57:45;;;;;;;19.03;15.00;;;4.40;38.00;;;;;;5010795;28;20985;-67
2021/01/16 03:00:13;;;;;;;19.63;14.37;;;4.60;38.10;;;;;;5011867;28;20420;-67
2021/01/16 03:02:39;;;;;;;18.07;14.47;;;4.60;37.40;;;;;;5011669;28;20467;-68
2021/01/16 03:05:05;;;;;;;14.73;12.70;;;4.60;37.10;;;;;;5011636;28;20932;-67
2021/01/16 03:07:33;;;;;;;17.53;11.77;;;4.30;37.90;;;;;;5011429;28;20260;-67
2021/01/16 03:10:04;;;;;;;18.80;14.30;;;4.50;38.00;;;;;;5010417;28;20445;-67
2021/01/16 03:12:30;;;;;;;16.50;13.20;;;4.50;37.90;;;;;;5011622;28;20495;-67
2021/01/16 03:14:58;;;;;;;14.70;12.40;;;4.20;37.80;;;;;;5011413;28;20493;-68
2021/01/16 03:17:51;;;;;;;18.20;13.83;;;4.20;38.20;;;;;;5011350;28;20412;-67
2021/01/16 03:20:27;;;;;;;14.73;12.53;;;4.20;37.80;;;;;;5011474;28;20415;-67
2021/01/16 03:22:55;;;;;;;15.63;13.37;;;4.30;37.90;;;;;;5011241;28;20513;-67
2021/01/16 03:25:22;;;;;;;13.60;12.17;;;4.40;38.20;;;;;;5011370;28;20511;-67
2021/01/16 03:27:49;;;;;;;14.80;13.00;;;4.60;38.20;;;;;;5011267;28;20877;-68
2021/01/16 03:30:16;;;;;;;14.80;13.10;;;4.70;38.20;;;;;;5011417;28;20412;-67
2021/01/16 03:32:42;;;;;;;17.17;13.50;;;4.20;38.40;;;;;;5011321;28;20408;-67
2021/01/16 03:35:09;;;;;;;18.33;14.17;;;4.60;38.10;;;;;;5011303;28;20519;-68
2021/01/16 03:37:34;;;;;;;15.90;12.60;;;4.40;37.80;;;;;;5010945;28;20424;-68
2021/01/16 03:40:00;;;;;;;16.10;13.13;;;4.50;38.10;;;;;;5011397;28;20412;-69
2021/01/16 03:42:26;;;;;;;17.50;13.77;;;4.50;38.00;;;;;;5011433;28;20216;-67
2021/01/16 03:44:51;;;;;;;16.47;14.00;;;4.40;37.40;;;;;;5011390;28;20447;-67
2021/01/16 03:47:17;;;;;;;17.97;14.60;;;4.50;38.10;;;;;;5011275;28;20173;-67
2021/01/16 03:49:42;;;;;;;17.40;13.53;;;4.40;38.00;;;;;;5011377;28;20173;-67
2021/01/16 03:52:08;;;;;;;16.80;13.57;;;4.40;38.80;;;;;;5011056;28;20178;-67
2021/01/16 03:54:34;;;;;;;19.93;14.87;;;4.40;38.00;;;;;;5011105;28;20178;-68
2021/01/16 03:57:00;;;;;;;18.90;13.80;;;4.60;38.80;;;;;;5011019;28;20607;-68
2021/01/16 03:59:25;;;;;;;15.73;14.03;;;4.60;38.10;;;;;;5009697;28;20432;-67
2021/01/16 04:01:51;;;;;;;15.60;13.90;;;4.70;37.70;;;;;;5010936;28;20211;-68
2021/01/16 04:04:16;;;;;;;16.57;14.73;;;4.60;38.10;;;;;;5011031;28;20192;-67
2021/01/16 04:06:43;;;;;;;17.03;14.50;;;4.70;37.70;;;;;;5010846;28;20193;-68
2021/01/16 04:09:08;;;;;;;18.70;15.50;;;4.70;37.80;;;;;;5013372;28;20178;-67
2021/01/16 04:11:35;;;;;;;19.10;15.43;;;4.70;37.70;;;;;;5014877;28;20412;-68
2021/01/16 04:14:00;;;;;;;19.27;14.93;;;4.40;38.20;;;;;;5014916;28;20201;-68
2021/01/16 04:16:26;;;;;;;19.87;14.60;;;4.10;38.50;;;;;;5014777;28;20889;-67
2021/01/16 04:18:53;;;;;;;21.33;15.60;;;4.40;39.50;;;;;;5014616;28;20284;-67
2021/01/16 04:21:19;;;;;;;17.30;13.73;;;4.50;38.80;;;;;;5014602;28;20810;-68
2021/01/16 04:23:44;;;;;;;18.77;14.17;;;4.40;38.00;;;;;;5014646;28;20459;-68
2021/01/16 04:26:10;;;;;;;16.47;13.50;;;4.60;38.20;;;;;;5014594;28;20460;-67
2021/01/16 04:28:35;;;;;;;21.23;15.73;;;4.70;38.20;;;;;;5014467;28;20664;-68
2021/01/16 04:31:01;;;;;;;16.70;14.23;;;4.80;37.00;;;;;;5014552;28;20201;-68
2021/01/16 04:33:26;;;;;;;19.03;15.43;;;4.80;37.00;;;;;;5014585;28;20703;-67
2021/01/16 04:35:52;;;;;;;20.30;15.03;;;4.70;36.50;;;;;;5014320;28;20227;-67
2021/01/16 04:38:17;;;;;;;19.53;15.13;;;5.10;37.60;;;;;;5014252;28;20181;-68
2021/01/16 04:40:44;;;;;;;17.13;14.27;;;5.00;36.00;;;;;;5014343;28;20181;-67
2021/01/16 04:43:12;;;;;;;16.80;14.50;;;4.80;37.00;;;;;;5014467;28;20169;-67
2021/01/16 04:45:38;;;;;;;20.30;15.03;;;4.90;37.00;;;;;;5014365;28;21139;-67
2021/01/16 04:48:07;;;;;;;18.23;13.67;;;4.90;36.30;;;;;;5014171;28;20502;-69
2021/01/16 04:50:35;;;;;;;17.50;13.90;;;4.90;36.30;;;;;;5014212;28;20475;-68
2021/01/16 04:53:06;;;;;;;19.47;14.90;;;4.70;36.50;;;;;;5014318;28;20412;-67
2021/01/16 04:55:33;;;;;;;18.47;14.77;;;4.20;37.40;;;;;;5014217;28;20780;-66
2021/01/16 04:58:07;;;;;;;16.00;14.30;;;4.40;37.90;;;;;;5014009;28;20408;-67
2021/01/16 05:00:35;;;;;;;17.07;13.57;;;4.50;37.30;;;;;;5014396;28;20504;-67
2021/01/16 05:03:22;;;;;;;18.80;15.17;;;4.40;37.40;;;;;;5014107;28;20420;-68
2021/01/16 05:05:52;;;;;;;19.07;14.27;;;4.30;36.80;;;;;;5014050;28;20460;-67
2021/01/16 05:08:19;;;;;;;18.50;14.50;;;4.70;38.00;;;;;;5013791;28;20408;-67
2021/01/16 05:10:49;;;;;;;16.27;14.07;;;4.60;36.60;;;;;;5013846;28;20901;-68
2021/01/16 05:13:17;;;;;;;16.77;13.97;;;4.80;36.10;;;;;;5013797;28;20927;-68
2021/01/16 05:15:46;;;;;;;15.80;14.00;;;4.60;35.80;;;;;;5013632;28;20498;-68
2021/01/16 05:18:15;;;;;;;15.33;13.57;;;4.50;36.00;;;;;;5013734;28;20438;-68
2021/01/16 05:20:43;;;;;;;16.17;14.40;;;4.70;36.00;;;;;;5012480;28;21074;-67
2021/01/16 05:23:14;;;;;;;17.53;15.43;;;4.70;35.60;;;;;;5013493;28;20412;-68
2021/01/16 05:25:45;;;;;;;15.90;14.00;;;4.70;36.80;;;;;;5013527;28;20519;-67
2021/01/16 05:28:13;;;;;;;17.40;15.03;;;4.70;35.50;;;;;;5013433;28;20405;-68
2021/01/16 05:31:02;;;;;;;16.23;14.47;;;4.80;35.40;;;;;;5013495;28;20411;-67
2021/01/16 05:33:33;;;;;;;19.67;15.33;;;4.90;35.80;;;;;;5013468;28;20846;-67
2021/01/16 05:36:01;;;;;;;16.40;14.00;;;5.00;35.60;;;;;;5013252;28;20435;-68
2021/01/16 05:38:35;;;;;;;18.53;14.43;;;4.60;35.70;;;;;;5013134;28;20792;-67
2021/01/16 05:41:10;;;;;;;19.70;14.70;;;4.80;35.60;;;;;;5013202;28;20478;-67
2021/01/16 05:43:38;;;;;;;16.40;13.73;;;4.50;36.30;;;;;;5013207;28;20419;-67
2021/01/16 05:46:05;;;;;;;17.37;14.33;;;4.80;36.70;;;;;;5013084;28;20436;-68
2021/01/16 05:48:33;;;;;;;15.63;14.03;;;5.00;36.50;;;;;;5012839;28;20412;-67
2021/01/16 05:51:01;;;;;;;17.00;13.97;;;4.80;34.80;;;;;;5013017;28;20854;-67
2021/01/16 05:53:28;;;;;;;17.87;14.37;;;4.50;36.80;;;;;;5013254;28;20440;-68
2021/01/16 05:55:55;;;;;;;16.47;14.20;;;4.30;37.00;;;;;;5013073;28;20922;-67
2021/01/16 05:58:23;;;;;;;16.27;14.17;;;4.70;36.90;;;;;;5012858;28;20417;-67
2021/01/16 06:00:51;;;;;;;18.77;15.50;;;4.50;36.10;;;;;;5012988;28;20417;-67
2021/01/16 06:03:20;;;;;;;16.03;14.20;;;4.70;35.60;;;;;;5012873;28;20930;-67
2021/01/16 06:05:54;;;;;;;15.43;13.80;;;4.90;35.80;;;;;;5012755;28;21099;-68
2021/01/16 06:08:20;;;;;;;19.30;14.87;;;4.60;35.70;;;;;;5012719;28;20406;-69
2021/01/16 06:10:54;;;;;;;19.67;15.23;;;4.70;36.20;;;;;;5012832;28;20404;-68
2021/01/16 06:13:22;;;;;;;18.00;15.67;;;4.60;36.50;;;;;;5012667;28;20412;-67
2021/01/16 06:15:49;;;;;;;20.43;14.10;;;4.80;35.80;;;;;;5012607;28;20429;-67
2021/01/16 06:18:40;;;;;;;17.60;14.57;;;4.60;36.20;;;;;;5012444;28;20899;-67
2021/01/16 06:21:05;;;;;;;19.50;15.50;;;4.70;35.30;;;;;;5012567;28;20456;-68
2021/01/16 06:23:32;;;;;;;18.60;14.87;;;4.50;36.40;;;;;;5012399;28;20598;-67
2021/01/16 06:26:05;;;;;;;18.90;15.77;;;4.60;36.10;;;;;;5012346;28;20238;-67
2021/01/16 06:28:39;;;;;;;17.70;14.80;;;4.80;35.70;;;;;;5012129;28;20495;-68
2021/01/16 06:31:22;;;;;;;17.57;14.20;;;4.90;35.60;;;;;;5012212;28;20407;-67
2021/01/16 06:34:05;;;;;;;16.23;14.50;;;4.80;34.80;;;;;;5012323;28;20397;-67
2021/01/16 06:36:43;;;;;;;18.60;15.10;;;4.70;35.80;;;;;;5012185;28;20432;-67
2021/01/16 06:39:09;;;;;;;19.63;15.87;;;4.80;35.40;;;;;;5012019;28;20486;-67
2021/01/16 06:41:37;;;;;;;18.53;15.53;;;5.00;34.70;;;;;;5012215;28;20466;-67
2021/01/16 06:44:13;;;;;;;21.13;15.77;;;5.00;34.80;;;;;;5012112;28;20400;-67
2021/01/16 06:46:46;;;;;;;15.70;13.07;;;4.70;34.70;;;;;;5012139;28;20432;-67
2021/01/16 06:49:18;;;;;;;17.07;15.13;;;4.30;36.00;;;;;;5011714;28;20405;-69
2021/01/16 06:51:44;;;;;;;17.63;14.97;;;4.50;36.50;;;;;;5012002;28;20418;-67
2021/01/16 06:54:10;;;;;;;15.70;13.43;;;4.40;36.30;;;;;;5012122;28;20846;-67
2021/01/16 06:56:39;;;;;;;18.87;15.17;;;4.50;36.50;;;;;;5011837;28;20518;-67
2021/01/16 06:59:12;;;;;;;20.33;14.93;;;4.50;35.70;;;;;;5012022;28;20660;-67
2021/01/16 07:01:38;;;;;;;18.27;15.03;;;4.70;35.50;;;;;;5011652;28;20830;-66
2021/01/16 07:04:04;;;;;;;16.23;14.37;;;4.50;35.20;;;;;;5011750;28;20405;-67
2021/01/16 07:06:48;;;;;;;19.70;14.20;;;4.60;35.20;;;;;;5011652;28;20432;-67
2021/01/16 07:09:20;;;;;;;18.97;15.57;;;4.80;34.80;;;;;;5011521;28;20412;-67
2021/01/16 07:11:54;;;;;;;19.90;16.73;;;4.60;36.30;;;;;;5011611;28;20423;-67
2021/01/16 07:14:21;;;;;;;16.20;14.00;;;4.40;35.70;;;;;;5011420;28;20854;-68
2021/01/16 07:16:49;;;;;;;18.30;15.40;;;4.70;35.70;;;;;;5010341;28;20467;-67
2021/01/16 07:19:22;;;;;;;17.43;15.70;;;4.40;35.60;;;;;;5011307;28;20420;-67
2021/01/16 07:21:48;;;;;;;17.43;14.17;;;4.40;36.00;;;;;;5011505;28;20506;-67
2021/01/16 07:24:16;;;;;;;17.27;15.27;;;4.40;36.00;;;;;;5011347;28;20425;-67
2021/01/16 07:26:45;;;;;;;18.57;15.43;;;4.50;36.60;;;;;;5011263;28;20523;-67
2021/01/16 07:29:13;;;;;;;17.67;15.17;;;4.30;36.50;;;;;;5011216;28;20400;-67
2021/01/16 07:31:42;;;;;;;20.23;15.97;;;4.60;35.40;;;;;;5011319;28;20471;-67
2021/01/16 07:34:07;;;;;;;20.43;14.70;;;4.60;36.00;;;;;;5011453;28;20420;-67
2021/01/16 07:36:34;;;;;;;20.53;14.23;;;4.40;35.70;;;;;;5011253;28;20429;-66
2021/01/16 07:39:07;;;;;;;21.90;16.50;;;4.10;36.90;;;;;;5011131;28;20190;-68
2021/01/16 07:41:35;;;;;;;17.27;14.43;;;4.30;37.90;;;;;;5011280;28;20455;-67
2021/01/16 07:44:11;;;;;;;16.73;14.43;;;4.50;36.50;;;;;;5010698;28;20447;-67
2021/01/16 07:46:41;;;;;;;19.70;16.13;;;4.80;36.70;;;;;;5011091;28;20428;-67
2021/01/16 07:49:07;;;;;;;18.33;15.70;;;4.60;36.10;;;;;;5011077;28;20499;-67
2021/01/16 07:51:38;;;;;;;16.73;14.70;;;4.40;36.60;;;;;;5011211;28;20488;-67
2021/01/16 07:54:10;;;;;;;19.57;14.60;;;4.70;36.20;;;;;;5011430;28;20188;-66
2021/01/16 07:56:43;;;;;;;19.57;15.90;;;4.40;36.00;;;;;;5011456;28;20463;-66
2021/01/16 07:59:23;;;;;;;16.27;14.27;;;4.10;37.70;;;;;;5011125;28;20419;-67
2021/01/16 08:02:25;;;;;;;18.03;14.13;;;4.00;38.30;;;;;;5011278;28;20458;-68
2021/01/16 08:05:01;;;;;;;15.97;14.03;;;4.10;37.70;;;;;;5011090;28;20428;-67
2021/01/16 08:08:05;;;;;;;19.67;15.80;;;4.50;35.60;;;;;;5011118;28;20496;-67
2021/01/16 08:10:33;;;;;;;19.07;15.33;;;4.50;36.20;;;;;;4987999;28;20414;-68
2021/01/16 08:13:04;;;;;;;18.50;16.03;;;4.40;37.10;;;;;;5011047;28;20424;-67
2021/01/16 08:15:30;;;;;;;18.57;15.20;;;4.50;36.30;;;;;;5010727;28;20941;-67
2021/01/16 08:17:59;;;;;;;23.67;18.00;;;4.30;36.60;;;;;;5010689;28;20443;-67
2021/01/16 08:20:29;;;;;;;19.50;16.10;;;4.00;37.70;;;;;;5010000;28;20412;-67
2021/01/16 08:22:58;;;;;;;16.90;15.10;;;4.10;37.90;;;;;;5010768;28;20464;-67
2021/01/16 08:25:28;;;;;;;22.73;18.00;;;4.60;37.50;;;;;;5011053;28;20443;-67
2021/01/16 08:27:55;;;;;;;18.20;15.27;;;4.60;37.50;;;;;;5010416;28;20400;-68
2021/01/16 08:30:26;;;;;;;21.87;16.43;;;4.30;37.30;;;;;;5010845;28;20408;-67
2021/01/16 08:33:10;;;;;;;18.00;15.60;;;4.10;37.70;;;;;;5010759;28;20432;-67
2021/01/16 08:35:47;;;;;;;18.20;15.27;;;4.30;37.90;;;;;;5010484;28;20963;-67
2021/01/16 08:38:15;;;;;;;19.33;16.60;;;4.50;36.60;;;;;;5010508;28;20411;-67
2021/01/16 08:40:42;;;;;;;17.40;14.40;;;4.20;37.80;;;;;;5010699;28;20412;-66
2021/01/16 08:43:08;;;;;;;19.53;15.90;;;4.60;36.90;;;;;;5010549;28;20456;-67
2021/01/16 08:45:34;;;;;;;19.73;15.37;;;4.40;37.70;;;;;;5010573;28;21013;-67
2021/01/16 08:48:01;;;;;;;18.17;15.47;;;4.60;38.10;;;;;;5010319;28;20173;-67
2021/01/16 08:50:34;;;;;;;20.10;16.90;;;4.30;37.90;;;;;;5010532;28;20182;-67
2021/01/16 08:53:19;;;;;;;18.50;15.43;;;4.00;38.80;;;;;;5010784;28;20416;-67
2021/01/16 08:55:44;;;;;;;19.90;16.27;;;4.20;38.90;;;;;;5013685;28;20519;-66
2021/01/16 08:58:10;;;;;;;19.30;15.93;;;3.90;39.70;;;;;;5013835;28;20444;-67
2021/01/16 09:00:38;;;;;;;16.67;14.73;;;3.80;39.60;;;;;;5013960;28;20228;-67
2021/01/16 09:03:20;;;;;;;19.60;15.33;;;3.50;40.50;;;;;;5013869;28;20551;-67
2021/01/16 09:05:58;;;;;;;21.53;14.43;;;3.50;41.20;;;;;;5013940;28;21105;-66
2021/01/16 09:08:26;;;;;;;19.83;15.40;;;3.90;43.60;;;;;;5013752;28;20412;-67
2021/01/16 09:10:53;;;;;;;17.93;15.20;;;4.10;41.60;;;;;;5013718;28;20413;-66
2021/01/16 09:13:26;;;;;;;17.57;15.57;;;4.20;40.00;;;;;;5014048;28;20415;-63
2021/01/16 09:15:52;;;;;;;16.80;12.17;;;4.20;40.60;;;;;;5013812;28;20428;-65
2021/01/16 09:18:18;;;;;;;19.67;15.10;;;5.00;46.10;;;;;;5013618;28;20828;-63
2021/01/16 09:20:46;;;;;;;23.23;17.60;;;5.50;48.10;;;;;;5013636;28;20499;-63
2021/01/16 09:23:23;;;;;;;17.20;14.40;;;6.00;42.50;;;;;;5013399;28;21074;-66
2021/01/16 09:26:05;;;;;;;19.67;17.03;;;5.40;36.80;;;;;;5012805;28;20427;-67
2021/01/16 09:28:47;;;;;;;18.47;15.10;;;4.80;36.60;;;;;;5014164;28;20812;-67
2021/01/16 09:31:16;;;;;;;16.50;13.83;;;4.60;38.10;;;;;;5012865;28;20520;-67
2021/01/16 09:33:46;;;;;;;18.00;14.73;;;4.70;37.60;;;;;;5012477;28;20491;-67
2021/01/16 09:36:12;;;;;;;14.97;13.40;;;4.40;38.60;;;;;;5012400;28;20439;-66
2021/01/16 09:38:38;;;;;;;19.30;14.30;;;4.30;37.20;;;;;;5013099;28;20770;-66
2021/01/16 09:41:04;;;;;;;15.00;13.00;;;4.30;37.50;;;;;;5013159;28;20420;-66
2021/01/16 09:43:39;;;;;;;15.77;14.03;;;4.30;37.90;;;;;;5013118;28;20419;-66
2021/01/16 09:46:04;;;;;;;17.43;13.70;;;4.30;37.80;;;;;;5013159;28;20185;-67
2021/01/16 09:48:42;;;;;;;16.03;12.97;;;4.00;38.60;;;;;;5012817;28;20466;-66
2021/01/16 09:51:10;;;;;;;16.80;14.10;;;4.40;38.60;;;;;;5012646;28;20200;-66
2021/01/16 09:53:36;;;;;;;15.57;13.37;;;4.30;38.60;;;;;;5012734;28;20420;-66
2021/01/16 09:56:03;;;;;;;18.67;14.80;;;3.80;40.20;;;;;;5012799;28;20432;-67
2021/01/16 09:58:36;;;;;;;16.57;13.87;;;4.10;38.70;;;;;;5012681;28;20411;-67
2021/01/16 10:01:22;;;;;;;15.40;13.67;;;4.00;38.70;;;;;;5012876;28;20442;-66
2021/01/16 10:03:48;;;;;;;15.87;13.93;;;4.20;39.10;;;;;;5012845;28;20544;-67
2021/01/16 10:06:18;;;;;;;15.57;12.90;;;4.30;37.90;;;;;;5012196;28;20792;-67
2021/01/16 10:08:47;;;;;;;13.47;11.73;;;4.20;37.30;;;;;;5012768;28;20779;-67
2021/01/16 10:11:34;;;;;;;15.60;12.90;;;4.30;37.50;;;;;;5012893;28;20436;-66
2021/01/16 10:14:17;;;;;;;14.60;12.50;;;4.70;36.50;;;;;;5012494;28;20459;-67
2021/01/16 10:16:48;;;;;;;16.60;12.80;;;4.80;35.40;;;;;;5012755;28;20428;-66
2021/01/16 10:19:16;;;;;;;13.10;11.73;;;4.70;35.00;;;;;;5012511;28;20415;-67
2021/01/16 10:21:56;;;;;;;16.30;13.77;;;4.80;35.00;;;;;;5012215;28;21028;-68
2021/01/16 10:24:25;;;;;;;13.73;12.17;;;4.50;36.30;;;;;;5012571;28;20507;-66
2021/01/16 10:26:52;;;;;;;16.10;14.50;;;4.80;35.50;;;;;;5012391;28;20782;-67
2021/01/16 10:29:20;;;;;;;14.43;12.90;;;4.80;35.30;;;;;;5012217;28;20416;-66
2021/01/16 10:31:46;;;;;;;14.70;13.10;;;4.70;34.80;;;;;;5012444;28;20511;-66
2021/01/16 10:34:12;;;;;;;12.67;11.33;;;4.60;35.20;;;;;;5012358;28;20487;-67
2021/01/16 10:36:41;;;;;;;12.43;10.93;;;4.40;35.00;;;;;;5011918;28;20528;-66
2021/01/16 10:39:16;;;;;;;9.90;8.90;;;4.60;33.60;;;;;;5012114;28;20492;-67
2021/01/16 10:41:44;;;;;;;14.10;11.07;;;4.80;33.30;;;;;;5012084;28;20950;-66
2021/01/16 10:44:11;;;;;;;12.43;11.23;;;4.80;33.20;;;;;;5011764;28;20510;-67
2021/01/16 10:46:45;;;;;;;14.33;12.80;;;4.80;33.90;;;;;;5010389;28;20443;-67
2021/01/16 10:49:25;;;;;;;14.70;10.90;;;4.80;33.70;;;;;;5010331;28;20411;-68
2021/01/16 10:51:59;;;;;;;11.10;9.83;;;4.70;34.60;;;;;;5010939;28;20442;-68
2021/01/16 10:54:25;;;;;;;12.83;10.93;;;5.00;34.00;;;;;;5012084;28;20931;-68
2021/01/16 10:57:05;;;;;;;11.83;10.63;;;5.00;32.00;;;;;;5011677;28;20849;-68
2021/01/16 10:59:33;;;;;;;14.10;10.60;;;5.00;32.30;;;;;;5011819;28;20412;-68
2021/01/16 11:02:08;;;;;;;14.20;10.93;;;4.80;32.10;;;;;;5011751;28;21095;-68
2021/01/16 11:04:39;;;;;;;12.63;10.30;;;4.80;31.50;;;;;;5011702;28;20422;-69
2021/01/16 11:07:09;;;;;;;12.60;11.30;;;4.90;31.60;;;;;;5011591;28;20413;-69
2021/01/16 11:09:35;;;;;;;19.10;17.27;;;4.90;31.70;;;;;;5012088;28;20892;-69
2021/01/16 11:12:05;;;;;;;18.17;14.97;;;5.00;35.10;;;;;;5011524;28;20444;-68
2021/01/16 11:14:37;;;;;;;19.27;17.27;;;5.10;35.10;;;;;;5011484;28;20184;-70
2021/01/16 11:17:04;;;;;;;16.80;15.00;;;5.10;36.00;;;;;;5010187;28;20412;-70
2021/01/16 11:19:34;;;;;;;20.40;16.57;;;5.00;35.80;;;;;;5010662;28;20444;-69
2021/01/16 11:22:08;;;;;;;16.37;14.50;;;5.00;36.20;;;;;;5010902;28;20539;-68
2021/01/16 11:24:54;;;;;;;17.63;15.30;;;5.10;35.10;;;;;;5010746;28;20439;-69
2021/01/16 11:27:27;;;;;;;14.97;13.20;;;5.00;36.30;;;;;;5010542;28;20963;-68
2021/01/16 11:30:08;;;;;;;17.83;13.63;;;5.20;35.40;;;;;;5011407;28;20420;-69
2021/01/16 11:32:36;;;;;;;23.30;15.13;;;5.10;35.20;;;;;;5011699;28;20491;-69
2021/01/16 11:35:01;;;;;;;16.00;13.37;;;5.00;34.80;;;;;;5011293;28;20433;-69
2021/01/16 11:37:50;;;;;;;20.00;16.60;;;4.90;35.40;;;;;;5010767;28;20408;-69
2021/01/16 11:40:31;;;;;;;16.13;14.43;;;4.90;36.20;;;;;;5010738;28;20696;-69
2021/01/16 11:43:10;;;;;;;16.23;13.90;;;5.00;35.80;;;;;;5010640;28;20881;-68
2021/01/16 11:45:37;;;;;;;16.63;13.47;;;5.10;34.40;;;;;;5011491;28;20432;-69
2021/01/16 11:48:04;;;;;;;15.10;12.70;;;5.10;34.50;;;;;;5010697;28;20413;-68
2021/01/16 11:50:34;;;;;;;14.27;12.80;;;5.00;34.30;;;;;;5010058;28;20427;-69
2021/01/16 11:53:10;;;;;;;19.67;15.30;;;5.00;34.40;;;;;;5010329;28;20412;-68
2021/01/16 11:55:35;;;;;;;18.10;15.87;;;5.20;35.30;;;;;;5010610;28;20440;-69
2021/01/16 11:58:03;;;;;;;16.57;12.57;;;5.20;35.00;;;;;;5010765;28;20408;-69
2021/01/16 12:00:29;;;;;;;14.37;12.83;;;5.00;32.70;;;;;;5010847;28;20509;-69
2021/01/16 12:02:56;;;;;;;14.57;13.07;;;5.20;33.40;;;;;;5010866;28;20460;-70
2021/01/16 12:05:23;;;;;;;15.97;13.93;;;5.40;32.40;;;;;;5010992;28;20463;-70
2021/01/16 12:07:53;;;;;;;17.20;15.03;;;5.20;33.30;;;;;;5010686;28;20404;-71
2021/01/16 12:10:27;;;;;;;16.53;13.60;;;5.00;34.40;;;;;;5011234;28;20443;-71
2021/01/16 12:12:53;;;;;;;14.13;12.53;;;4.90;35.00;;;;;;5010890;28;20416;-70
2021/01/16 12:15:24;;;;;;;16.07;14.47;;;4.90;33.90;;;;;;5010845;28;20440;-68
2021/01/16 12:17:51;;;;;;;17.03;12.97;;;4.90;34.70;;;;;;5010733;28;20432;-69
2021/01/16 12:20:18;;;;;;;17.17;14.93;;;5.10;34.50;;;;;;5010790;28;20404;-68
2021/01/16 12:22:49;;;;;;;17.47;15.17;;;5.10;34.60;;;;;;5010529;28;20519;-67
2021/01/16 12:25:16;;;;;;;19.13;15.67;;;5.10;33.90;;;;;;5010535;28;20487;-67
2021/01/16 12:27:51;;;;;;;16.33;14.63;;;5.00;34.40;;;;;;5010566;28;20436;-67
2021/01/16 12:30:18;;;;;;;17.67;15.33;;;5.00;34.50;;;;;;5013333;28;20498;-67
2021/01/16 12:32:43;;;;;;;19.10;16.43;;;5.00;34.90;;;;;;5014562;28;20411;-67
2021/01/16 12:35:09;;;;;;;18.97;16.70;;;5.00;34.90;;;;;;5014380;28;20804;-67
2021/01/16 12:37:36;;;;;;;20.40;15.63;;;4.90;34.90;;;;;;5014232;28;20578;-67
2021/01/16 12:40:13;;;;;;;16.23;14.03;;;4.90;34.70;;;;;;5014213;28;20731;-67
2021/01/16 12:42:40;;;;;;;25.27;20.50;;;5.00;33.40;;;;;;5014299;28;20955;-67
2021/01/16 12:45:10;;;;;;;15.90;14.23;;;4.90;34.30;;;;;;5014182;28;20985;-67
2021/01/16 12:47:39;;;;;;;20.80;16.97;;;4.90;34.20;;;;;;5013742;28;20487;-67
2021/01/16 12:50:06;;;;;;;28.90;20.50;;;5.10;34.30;;;;;;5013368;28;20434;-67
2021/01/16 12:52:32;;;;;;;20.53;15.90;;;5.00;34.50;;;;;;5014091;28;20836;-67